Terminal Aerodrome Forecast
Issued by NWS

Home | Current Version | Previous Version | Graphics & Text | Print | Product List | Glossary On
Versions: 1 2 3 4 5 6 7 8 9 10 11 12 13 14 15 16 17 18 19 20 21 22 23 24 25 26 27 28 29 30 31
000
FTUS43 KLOT 260902 AAA
TAFGYY
TAF AMD
KGYY 260902Z 2609/2706 13008KT 3SM -RADZ BR SCT007 OVC015
     FM261000 14008KT 2SM -RADZ BR OVC007
     FM261500 17007KT 3SM -RADZ BR OVC010
     FM261900 20007KT 5SM BR VCSH BKN015 OVC024=

USA.gov is the U.S. government's official web portal to all federal, state and local government web resources and services.